Airfield :
LOGIN :

Register | Disclaimer

   EN    FR    IT 

 










Legend :    VFR   Marginal VFR   IFR   Intensive IFR   Very Intensive IFR
Visi :
Ceiling :
>= 8 km
>= 3000ft
5 to 8 km
1000 to 3000 ft
1500m to 5 km
500 to 1000 ft
800 to 1500m
200 to 500 ft
< 800m
< 200 ft
Symbols :   Thunderstorms  Fog  Heavy snow  Heavy precipitations  Wind > 20 kt
SIGMETs :     Misc.  Thunderstorms  Icing  Turbulence  Mountain Waves  Volcanic Ashes






- Airport Elevation : 157 ft
- IATA code : LIL


LFQQ - Lille Lesquin

CURRENT METAR :
  • 062300Z AUTO 24005KT CAVOK 17/13 Q1024 BECMG 31010KT

EXPIRED METARs :
  • 062230Z AUTO 23006KT 9999 FEW046 17/13 Q1024 BECMG 31010KT
  • 062200Z AUTO 25008KT 9999 BKN042 BKN062 BKN140 18/13 Q1024 BECMG 31010KT
  • 062130Z AUTO 25006KT 9999 BKN043 BKN060 BKN200 18/14 Q1024 BECMG 31010KT
  • 062100Z AUTO 26006KT 9999 SCT045 OVC058 18/14 Q1024 NOSIG
  • 062030Z AUTO 27008KT CAVOK 19/13 Q1024 NOSIG

TAF TAF LFQQ
Valid from the 06 at 18:00 until the 08 at 00:00 UTC


061700Z 0618/0724 31010KT 9999 BKN040
TEMPO 0705/0708 RA BKN014
TEMPO 0712/0716 35015G25KT
ATIS : +33 3 20 16 19 54



MET'MAP, your aeronautical weather chart ! - Copyright ORBIFLY December 2007 - Disclaimer

ORBIFLY MET'MAP TEAM :

Programming & Development : Alexandra Zaïnal
Original concept : Baudouin d'Aumeries
Technical & hardware support : Manuel Goepfert
Assistance : Marc-Olivier Méhu




SOURCES & CREDITS :

   NOAA